Time;durP1;ratioP1;P1;durP2;ratioP2;P2;SDS_P1;SDS_P2;PMS_P1;PMS_P2;Temp;Humidity;BMP_temperature;BMP_pressure;BME280_temperature;BME280_humidity;BME280_pressure;Samples;Min_cycle;Max_cycle;Signal;HPM_P1;HPM_P2
2023/07/07 00:00:00;;;;;;;;;8.67;8.67;;;;;23.35;70.88;101290.19;5038286;28;45816;-83
2023/07/07 00:02:25;;;;;;;;;11.67;10.00;;;;;23.29;71.62;101283.19;5038018;28;45686;-83
2023/07/07 00:04:51;;;;;;;;;10.00;8.67;;;;;23.27;72.02;101285.94;5038029;28;46299;-82
2023/07/07 00:07:16;;;;;;;;;8.00;8.00;;;;;23.25;72.47;101287.81;5015968;28;45543;-83
2023/07/07 00:09:42;;;;;;;;;10.00;8.00;;;;;23.21;72.31;101285.25;5038212;28;45459;-83
2023/07/07 00:12:07;;;;;;;;;12.67;9.33;;;;;23.19;72.74;101293.41;5037343;28;60625;-83
2023/07/07 00:14:33;;;;;;;;;10.33;9.33;;;;;23.15;73.00;101286.34;5037425;28;46234;-82
2023/07/07 00:17:01;;;;;;;;;9.00;7.67;;;;;23.12;73.43;101282.91;5038236;28;45442;-82
2023/07/07 00:19:33;;;;;;;;;7.67;7.00;;;;;23.10;73.86;101284.75;5037041;28;45421;-83
2023/07/07 00:22:00;;;;;;;;;8.67;8.67;;;;;23.08;73.46;101276.72;5031846;28;45443;-82
2023/07/07 00:24:26;;;;;;;;;10.00;6.33;;;;;23.05;73.46;101276.81;5038162;28;46708;-84
2023/07/07 00:26:51;;;;;;;;;9.00;8.00;;;;;23.06;73.86;101285.78;5037444;28;45411;-82
2023/07/07 00:29:17;;;;;;;;;8.00;3.33;;;;;23.05;73.67;101289.41;5038032;28;45563;-82
2023/07/07 00:31:42;;;;;;;;;7.67;6.67;;;;;23.02;73.67;101289.53;5037167;28;45522;-82
2023/07/07 00:34:08;;;;;;;;;6.00;6.00;;;;;23.02;73.45;101297.63;5037337;28;52057;-84
2023/07/07 00:36:33;;;;;;;;;6.00;6.00;;;;;22.98;73.72;101286.06;5026961;28;45345;-82
2023/07/07 00:38:58;;;;;;;;;7.00;7.00;;;;;22.97;73.78;101293.25;5031289;28;49260;-83
2023/07/07 00:41:24;;;;;;;;;9.00;6.00;;;;;22.93;74.47;101285.31;5032023;28;45462;-82
2023/07/07 00:44:19;;;;;;;;;8.00;6.67;;;;;22.94;74.32;101295.16;5015892;28;48279;-83
2023/07/07 00:46:44;;;;;;;;;5.33;5.33;;;;;22.91;74.30;101284.50;5019569;28;45520;-82
2023/07/07 00:49:14;;;;;;;;;8.00;7.00;;;;;22.88;74.08;101279.19;5037355;28;46778;-82
2023/07/07 00:51:44;;;;;;;;;6.00;6.00;;;;;22.88;74.20;101276.50;5019753;28;45566;-82
2023/07/07 00:54:14;;;;;;;;;9.33;8.00;;;;;22.82;73.96;101276.69;5027951;28;46815;-82
2023/07/07 00:56:46;;;;;;;;;11.67;7.33;;;;;22.82;74.40;101279.38;5035939;28;45390;-84
2023/07/07 00:59:22;;;;;;;;;7.33;7.33;;;;;22.76;75.33;101275.06;5037596;28;45316;-84
2023/07/07 01:01:51;;;;;;;;;11.67;8.67;;;;;22.74;75.90;101283.22;5037328;28;45311;-82
2023/07/07 01:04:17;;;;;;;;;11.00;9.33;;;;;22.69;76.74;101270.78;5036984;28;45372;-82
2023/07/07 01:06:49;;;;;;;;;11.33;8.00;;;;;22.66;77.36;101265.53;5036795;28;45400;-82
2023/07/07 01:09:14;;;;;;;;;12.33;8.67;;;;;22.62;77.88;101266.56;5018458;28;45428;-82
2023/07/07 01:11:40;;;;;;;;;7.67;5.00;;;;;22.62;77.97;101261.16;5037098;28;45454;-83
2023/07/07 01:14:27;;;;;;;;;10.67;8.00;;;;;22.62;78.04;101269.25;5035515;28;47529;-82
2023/07/07 01:17:04;;;;;;;;;12.33;11.67;;;;;22.60;78.47;101268.41;5037190;28;45347;-82
2023/07/07 01:19:44;;;;;;;;;12.67;11.00;;;;;22.58;78.51;101264.88;5037265;28;45468;-83
2023/07/07 01:22:19;;;;;;;;;13.67;11.67;;;;;22.56;79.10;101272.13;5035630;28;45473;-83
2023/07/07 01:25:05;;;;;;;;;14.67;11.00;;;;;22.54;78.99;101268.63;5037230;28;46469;-83
2023/07/07 01:27:55;;;;;;;;;16.67;14.00;;;;;22.52;79.45;101270.47;5036380;28;45504;-82
2023/07/07 01:30:29;;;;;;;;;15.00;12.00;;;;;22.50;80.04;101273.22;5036651;28;45485;-81
2023/07/07 01:32:54;;;;;;;;;13.67;13.67;;;;;22.48;80.61;101267.00;5036009;28;45565;-83
2023/07/07 01:35:21;;;;;;;;;13.67;13.67;;;;;22.43;80.81;101266.28;5036779;28;46372;-83
2023/07/07 01:37:51;;;;;;;;;15.33;13.67;;;;;22.42;80.76;101265.34;5036585;28;45447;-82
2023/07/07 01:40:16;;;;;;;;;16.00;13.67;;;;;22.42;80.84;101277.94;5036291;28;45334;-82
2023/07/07 01:43:02;;;;;;;;;14.00;12.33;;;;;22.39;81.82;101259.22;5033800;28;53811;-82
2023/07/07 01:45:40;;;;;;;;;13.00;12.67;;;;;22.37;81.79;101270.03;5034088;28;46649;-82
2023/07/07 01:48:13;;;;;;;;;16.00;14.00;;;;;22.36;82.25;101260.16;5036587;28;45464;-82
2023/07/07 01:50:39;;;;;;;;;13.00;11.33;;;;;22.35;82.22;101263.78;5018478;28;45574;-83
2023/07/07 01:53:09;;;;;;;;;12.33;12.33;;;;;22.32;82.43;101266.59;5036497;28;45419;-82
2023/07/07 01:55:47;;;;;;;;;19.33;15.33;;;;;22.31;82.79;101269.31;5036457;28;48033;-85
2023/07/07 01:58:13;;;;;;;;;14.00;11.00;;;;;22.29;82.92;101257.72;5036292;28;45495;-82
2023/07/07 02:00:39;;;;;;;;;15.33;12.67;;;;;22.26;83.25;101256.00;5035021;28;45265;-82
2023/07/07 02:03:09;;;;;;;;;13.33;10.67;;;;;22.25;83.26;101256.06;5034799;28;45597;-82
2023/07/07 02:05:34;;;;;;;;;14.00;10.33;;;;;22.23;83.60;101257.00;5027416;28;46788;-82
2023/07/07 02:08:00;;;;;;;;;14.00;11.33;;;;;22.21;83.38;101247.19;5035526;28;49426;-82
2023/07/07 02:10:26;;;;;;;;;11.67;8.00;;;;;22.16;83.95;101250.03;5036485;28;45560;-83
2023/07/07 02:12:51;;;;;;;;;9.67;8.00;;;;;22.15;83.99;101256.31;5035575;28;45464;-82
2023/07/07 02:15:16;;;;;;;;;9.67;9.00;;;;;22.15;84.33;101255.44;5035495;28;46670;-85
2023/07/07 02:17:42;;;;;;;;;10.33;9.33;;;;;22.13;84.42;101251.94;5033974;28;45381;-82
2023/07/07 02:20:09;;;;;;;;;9.67;8.00;;;;;22.12;84.72;101253.75;5034749;28;45404;-82
2023/07/07 02:22:36;;;;;;;;;10.00;10.00;;;;;22.09;84.91;101251.09;5035295;28;45558;-83
2023/07/07 02:25:01;;;;;;;;;14.67;11.67;;;;;22.07;85.09;101257.47;5035561;28;45568;-82
2023/07/07 02:27:26;;;;;;;;;10.00;9.00;;;;;22.07;84.84;101260.16;5035645;28;57000;-84
2023/07/07 02:29:52;;;;;;;;;12.33;8.67;;;;;22.05;85.22;101251.22;5036293;28;45261;-82
2023/07/07 02:32:17;;;;;;;;;10.33;10.00;;;;;22.00;85.57;101242.41;5035433;28;45306;-82
2023/07/07 02:34:47;;;;;;;;;10.00;10.00;;;;;21.96;85.58;101239.84;5036182;28;46167;-81
2023/07/07 02:37:16;;;;;;;;;9.33;7.67;;;;;21.95;85.56;101240.78;5035731;28;45403;-82
2023/07/07 02:39:42;;;;;;;;;11.33;7.33;;;;;21.92;86.02;101245.34;5036294;28;45453;-83
2023/07/07 02:42:08;;;;;;;;;9.67;7.67;;;;;21.91;86.61;101246.28;5034400;28;45477;-83
2023/07/07 02:44:33;;;;;;;;;11.67;7.67;;;;;21.90;86.58;101244.53;5030867;28;46571;-82
2023/07/07 02:46:58;;;;;;;;;8.33;8.00;;;;;21.87;86.54;101240.09;5034039;28;64130;-82
2023/07/07 02:49:24;;;;;;;;;11.67;9.00;;;;;21.86;86.78;101248.22;5035633;28;45178;-84
2023/07/07 02:51:49;;;;;;;;;11.33;8.00;;;;;21.83;87.06;101249.19;5033098;28;53615;-82
2023/07/07 02:54:14;;;;;;;;;14.00;9.33;;;;;21.80;87.43;101251.97;5034256;28;68376;-84
2023/07/07 02:56:40;;;;;;;;;9.33;6.67;;;;;21.78;87.45;101251.13;5034746;28;58914;-83
2023/07/07 02:59:05;;;;;;;;;8.00;8.00;;;;;21.77;87.21;101253.84;5035714;28;53620;-82
2023/07/07 03:01:32;;;;;;;;;9.00;7.33;;;;;21.74;87.69;101244.09;5027589;28;46176;-81
2023/07/07 03:03:58;;;;;;;;;8.33;8.00;;;;;21.72;87.90;101251.28;5037176;28;46737;-82
2023/07/07 03:06:23;;;;;;;;;11.00;8.00;;;;;21.70;88.08;101258.53;5037827;28;45506;-82
2023/07/07 03:08:49;;;;;;;;;7.00;6.00;;;;;21.69;88.01;101251.41;5038877;28;45695;-82
2023/07/07 03:11:18;;;;;;;;;7.33;6.33;;;;;21.65;88.49;101250.59;5038923;28;45289;-83
2023/07/07 03:13:47;;;;;;;;;10.33;7.00;;;;;21.64;88.80;101248.84;5037590;28;46652;-82
2023/07/07 03:16:22;;;;;;;;;6.67;6.67;;;;;21.65;88.80;101255.09;5038954;28;45424;-83
2023/07/07 03:18:49;;;;;;;;;9.67;6.00;;;;;21.62;88.94;101241.72;5038690;28;45291;-83
2023/07/07 03:21:16;;;;;;;;;10.00;8.00;;;;;21.61;88.71;101248.91;5038154;28;45467;-82
2023/07/07 03:23:42;;;;;;;;;9.67;7.00;;;;;21.60;89.40;101243.59;5038387;28;46419;-83
2023/07/07 03:26:11;;;;;;;;;12.00;6.67;;;;;21.58;89.29;101240.94;5039208;28;45477;-82
2023/07/07 03:28:37;;;;;;;;;5.67;5.67;;;;;21.56;89.39;101239.22;5037331;28;45514;-83
2023/07/07 03:31:11;;;;;;;;;11.33;7.67;;;;;21.54;89.49;101241.97;5038833;28;45554;-83
2023/07/07 03:33:42;;;;;;;;;10.33;8.00;;;;;21.51;89.63;101233.97;5038114;28;47372;-84
2023/07/07 03:36:12;;;;;;;;;6.00;6.00;;;;;21.48;89.94;101230.50;5038456;28;45155;-84
2023/07/07 03:38:38;;;;;;;;;7.67;7.00;;;;;21.48;90.01;101235.88;5037374;28;45288;-82
2023/07/07 03:41:05;;;;;;;;;6.67;6.67;;;;;21.46;90.22;101238.59;5037339;28;45257;-81
2023/07/07 03:43:33;;;;;;;;;7.67;5.67;;;;;21.42;90.33;101240.50;5031875;28;45514;-85
2023/07/07 03:46:00;;;;;;;;;8.33;6.00;;;;;21.39;90.00;101239.69;5032299;28;45381;-82
2023/07/07 03:48:26;;;;;;;;;5.00;3.67;;;;;21.40;90.06;101244.13;5038854;28;45390;-82
2023/07/07 03:51:02;;;;;;;;;8.33;6.33;;;;;21.39;90.48;101248.63;5038166;28;45614;-82
2023/07/07 03:53:29;;;;;;;;;6.33;6.33;;;;;21.38;90.69;101256.72;5032879;28;46764;-83
2023/07/07 03:55:55;;;;;;;;;6.00;6.00;;;;;21.35;90.89;101249.63;5037260;28;45361;-81
2023/07/07 03:58:21;;;;;;;;;6.00;6.00;;;;;21.33;91.21;101254.16;5037981;28;45461;-82
2023/07/07 04:00:46;;;;;;;;;7.33;5.00;;;;;21.34;91.61;101255.03;5020830;28;45383;-82
2023/07/07 04:03:12;;;;;;;;;6.00;6.00;;;;;21.31;91.66;101250.66;5037272;28;46384;-84
2023/07/07 04:05:42;;;;;;;;;6.33;6.33;;;;;21.31;91.03;101253.34;5036993;28;45228;-82
2023/07/07 04:08:07;;;;;;;;;8.67;7.00;;;;;21.27;92.03;101246.25;5038020;28;45241;-82
2023/07/07 04:10:33;;;;;;;;;7.67;6.33;;;;;21.26;91.56;101247.19;5037522;28;45465;-82
2023/07/07 04:12:58;;;;;;;;;7.00;7.00;;;;;21.26;92.12;101248.97;5036767;28;46437;-83
2023/07/07 04:15:23;;;;;;;;;8.00;5.00;;;;;21.26;92.12;101263.28;5035702;28;53020;-82
2023/07/07 04:17:49;;;;;;;;;6.00;6.00;;;;;21.26;91.96;101255.22;5035743;28;46129;-82
2023/07/07 04:20:14;;;;;;;;;11.00;7.00;;;;;21.25;92.55;101260.63;5037236;28;45410;-82
2023/07/07 04:22:39;;;;;;;;;6.33;6.00;;;;;21.25;92.29;101260.63;5037310;28;45284;-82
2023/07/07 04:25:13;;;;;;;;;8.00;6.67;;;;;21.25;92.30;101258.81;5036031;28;52729;-82
2023/07/07 04:27:39;;;;;;;;;8.33;6.33;;;;;21.24;93.02;101265.09;5036666;28;45321;-84
2023/07/07 04:30:05;;;;;;;;;9.00;6.00;;;;;21.24;93.16;101264.22;5038130;28;45267;-82
2023/07/07 04:32:32;;;;;;;;;7.67;7.00;;;;;21.25;93.11;101268.69;5036898;28;47204;-82
2023/07/07 04:34:58;;;;;;;;;7.33;6.67;;;;;21.23;93.07;101262.47;5037963;28;45138;-82
2023/07/07 04:37:23;;;;;;;;;5.00;5.00;;;;;21.25;93.76;101266.88;5037717;28;45149;-82
2023/07/07 04:39:49;;;;;;;;;8.00;5.00;;;;;21.24;93.98;101272.28;5037872;28;45516;-84
2023/07/07 04:42:15;;;;;;;;;7.00;5.67;;;;;21.25;94.09;101277.63;5037241;28;52969;-82
2023/07/07 04:44:40;;;;;;;;;4.67;4.67;;;;;21.24;94.04;101273.16;5030930;28;45484;-83
2023/07/07 04:47:05;;;;;;;;;5.33;5.33;;;;;21.26;93.78;101271.34;5036367;28;45540;-83
2023/07/07 04:49:31;;;;;;;;;6.00;6.00;;;;;21.26;94.03;101268.66;5037549;28;45537;-82
2023/07/07 04:51:56;;;;;;;;;6.33;6.33;;;;;21.26;94.19;101260.59;5036695;28;52328;-82
2023/07/07 04:54:22;;;;;;;;;7.00;5.67;;;;;21.29;94.72;101262.31;5037461;28;45426;-85
2023/07/07 04:56:48;;;;;;;;;6.00;5.67;;;;;21.30;94.17;101267.66;5035847;28;45494;-82
2023/07/07 04:59:13;;;;;;;;;9.67;7.00;;;;;21.31;94.46;101263.22;5037415;28;52688;-82
2023/07/07 05:01:40;;;;;;;;;6.33;6.00;;;;;21.33;94.85;101272.97;5035311;28;48019;-82
2023/07/07 05:04:07;;;;;;;;;7.00;7.00;;;;;21.33;94.82;101250.59;5037242;28;45493;-82
2023/07/07 05:06:36;;;;;;;;;9.00;7.33;;;;;21.35;94.81;101265.75;5035682;28;45384;-84
2023/07/07 05:09:03;;;;;;;;;7.00;7.00;;;;;21.34;94.80;101255.91;5037044;28;45321;-82
2023/07/07 05:11:30;;;;;;;;;7.33;7.33;;;;;21.37;94.99;101263.91;5034069;28;47601;-83
2023/07/07 05:13:55;;;;;;;;;7.00;7.00;;;;;21.38;94.67;101264.78;5132692;22;47426;-83
2023/07/07 05:16:26;;;;;;;;;9.00;6.00;;;;;21.40;95.15;101263.81;5032104;28;45253;-85
2023/07/07 05:18:52;;;;;;;;;8.00;6.33;;;;;21.41;95.39;101273.66;5033642;28;45486;-84
2023/07/07 05:21:19;;;;;;;;;8.67;7.00;;;;;21.43;95.23;101268.25;5035322;28;47282;-83
2023/07/07 05:23:45;;;;;;;;;7.33;7.33;;;;;21.44;95.30;101278.06;5037500;28;46529;-83
2023/07/07 05:26:11;;;;;;;;;8.00;7.00;;;;;21.47;95.33;101285.16;5036209;28;47248;-83
2023/07/07 05:28:36;;;;;;;;;8.00;7.33;;;;;21.48;95.81;101273.50;5036931;28;45455;-85
2023/07/07 05:31:02;;;;;;;;;10.00;7.00;;;;;21.49;96.19;101284.19;5036658;28;58200;-82
2023/07/07 05:33:28;;;;;;;;;10.67;8.33;;;;;21.51;95.73;101279.66;5034143;28;45296;-82
2023/07/07 05:35:56;;;;;;;;;6.67;5.67;;;;;21.54;95.70;101281.38;5035997;28;58437;-83
2023/07/07 05:38:24;;;;;;;;;9.33;8.33;;;;;21.54;96.28;101276.88;5034556;28;45257;-83
2023/07/07 05:40:50;;;;;;;;;8.00;7.33;;;;;21.59;96.33;101287.53;5036180;28;45772;-83
2023/07/07 05:43:16;;;;;;;;;6.67;5.00;;;;;21.60;96.34;101278.53;5034873;28;45359;-83
2023/07/07 05:45:42;;;;;;;;;12.33;8.00;;;;;21.62;96.19;101279.34;5034672;28;45510;-86
2023/07/07 05:48:09;;;;;;;;;12.67;7.67;;;;;21.63;96.16;101284.72;5035299;28;45752;-84
2023/07/07 05:50:35;;;;;;;;;8.33;7.33;;;;;21.65;96.42;101274.78;5033916;28;46930;-84
2023/07/07 05:53:01;;;;;;;;;7.00;7.00;;;;;21.70;96.66;101277.34;5037263;28;45577;-83
2023/07/07 05:55:32;;;;;;;;;7.00;7.00;;;;;21.71;96.64;101281.78;5036499;28;45209;-84
2023/07/07 05:57:58;;;;;;;;;7.00;6.00;;;;;21.73;96.19;101279.94;5035261;28;45543;-83
2023/07/07 06:00:25;;;;;;;;;7.00;6.00;;;;;21.77;96.49;101286.13;5035368;28;45344;-84
2023/07/07 06:02:50;;;;;;;;;6.67;6.33;;;;;21.80;96.45;101276.16;5035064;28;45481;-82
2023/07/07 06:05:15;;;;;;;;;8.67;8.67;;;;;21.82;95.90;101270.75;5034944;28;55810;-85
2023/07/07 06:07:41;;;;;;;;;8.00;6.67;;;;;21.87;95.96;101271.50;5035887;28;45538;-81
2023/07/07 06:10:10;;;;;;;;;10.00;10.00;;;;;21.89;96.27;101270.53;5035991;28;46324;-79
2023/07/07 06:12:35;;;;;;;;;9.00;8.00;;;;;21.94;96.59;101278.44;5046038;28;46247;-81
2023/07/07 06:15:01;;;;;;;;;6.00;5.00;;;;;21.94;97.02;101273.97;5035292;28;45409;-83
2023/07/07 06:17:27;;;;;;;;;6.00;6.00;;;;;22.01;96.68;101279.16;5022753;28;45515;-82
2023/07/07 06:19:52;;;;;;;;;10.00;7.67;;;;;22.04;96.78;101276.38;5020058;28;46496;-81
2023/07/07 06:22:17;;;;;;;;;6.33;6.33;;;;;22.07;96.45;101284.38;5028595;28;54258;-82
2023/07/07 06:24:43;;;;;;;;;8.00;6.33;;;;;22.09;96.21;101275.31;5032680;28;45776;-82
2023/07/07 06:27:08;;;;;;;;;6.67;6.00;;;;;22.13;95.66;101268.94;5027351;28;45225;-81
2023/07/07 06:29:35;;;;;;;;;5.67;5.67;;;;;22.17;95.48;101265.25;5023098;28;63458;-86
2023/07/07 06:32:01;;;;;;;;;8.00;6.00;;;;;22.22;95.43;101276.75;5027765;28;46050;-82
2023/07/07 06:34:26;;;;;;;;;10.67;7.00;;;;;22.27;95.58;101275.75;5027279;28;45556;-82
2023/07/07 06:36:52;;;;;;;;;9.33;7.67;;;;;22.27;95.91;101271.25;5033582;28;45348;-77
2023/07/07 06:39:17;;;;;;;;;9.00;6.00;;;;;22.30;96.57;101276.50;5035819;28;46161;-77
2023/07/07 06:41:42;;;;;;;;;6.00;6.00;;;;;22.29;95.14;101277.44;5035457;28;45254;-76
2023/07/07 06:44:08;;;;;;;;;9.00;6.67;;;;;22.32;95.29;101279.13;5032931;28;45863;-76
2023/07/07 06:46:33;;;;;;;;;8.33;6.67;;;;;22.32;95.52;101285.44;5036010;28;45560;-76
2023/07/07 06:48:59;;;;;;;;;8.67;7.00;;;;;22.36;94.89;101284.38;5034573;28;46475;-76
2023/07/07 06:51:25;;;;;;;;;9.00;7.00;;;;;22.36;94.61;101283.50;5034854;28;45940;-76
2023/07/07 06:53:50;;;;;;;;;8.67;6.00;;;;;22.39;95.74;101284.31;5037154;28;45517;-76
2023/07/07 06:56:15;;;;;;;;;11.67;5.33;;;;;22.39;96.19;101283.44;5031847;28;61905;-76
2023/07/07 06:58:41;;;;;;;;;7.33;7.33;;;;;22.42;96.38;101281.50;5035631;28;46698;-77
2023/07/07 07:01:08;;;;;;;;;5.00;5.00;;;;;22.45;95.84;101280.53;5034436;28;45536;-76
2023/07/07 07:03:33;;;;;;;;;8.33;8.33;;;;;22.49;96.22;101283.09;5031614;28;46427;-77
2023/07/07 07:05:59;;;;;;;;;8.33;6.00;;;;;22.55;96.00;101294.59;5037007;28;45601;-77
2023/07/07 07:08:25;;;;;;;;;8.67;8.67;;;;;22.59;95.72;101288.19;5035331;28;46555;-77
2023/07/07 07:10:50;;;;;;;;;6.33;6.33;;;;;22.65;96.47;101296.06;5030458;28;56683;-76
2023/07/07 07:13:15;;;;;;;;;11.00;8.00;;;;;22.69;95.64;101284.25;5031269;28;45167;-77
2023/07/07 07:15:41;;;;;;;;;11.67;6.33;;;;;22.76;95.72;101280.47;5024046;28;45474;-76
2023/07/07 07:18:06;;;;;;;;;8.00;8.00;;;;;22.81;94.89;101283.88;5027928;28;49268;-77
2023/07/07 07:20:31;;;;;;;;;9.00;7.67;;;;;22.88;94.84;101282.78;5031842;28;61328;-78
2023/07/07 07:22:57;;;;;;;;;8.33;7.33;;;;;22.96;94.64;101283.41;5028571;28;55636;-77
2023/07/07 07:25:22;;;;;;;;;10.00;8.00;;;;;23.05;94.47;101281.34;5036024;28;45382;-77
2023/07/07 07:27:47;;;;;;;;;7.33;7.33;;;;;23.15;93.85;101289.06;5030819;28;60732;-77
2023/07/07 07:30:15;;;;;;;;;7.33;7.33;;;;;23.25;94.07;101289.63;5032883;28;66159;-77
2023/07/07 07:32:40;;;;;;;;;9.67;6.67;;;;;23.30;94.25;101295.75;5033182;28;45317;-77
2023/07/07 07:35:06;;;;;;;;;9.67;8.00;;;;;23.36;94.10;101283.88;5033402;28;45520;-77
2023/07/07 07:37:32;;;;;;;;;10.00;7.00;;;;;23.43;93.38;101283.56;5036409;28;47376;-77
2023/07/07 07:39:57;;;;;;;;;8.33;7.00;;;;;23.46;93.69;101288.00;5031304;28;45435;-78
2023/07/07 07:42:23;;;;;;;;;8.00;6.33;;;;;23.50;93.31;101289.66;5033668;28;60711;-77
2023/07/07 07:44:49;;;;;;;;;8.00;7.67;;;;;23.55;93.46;101290.38;5036661;28;62600;-76
2023/07/07 07:47:14;;;;;;;;;10.33;8.00;;;;;23.58;93.15;101279.47;5035752;28;64200;-76
2023/07/07 07:49:40;;;;;;;;;12.00;9.00;;;;;23.66;93.38;101284.63;5035477;28;45500;-77
2023/07/07 07:52:06;;;;;;;;;15.67;13.33;;;;;23.70;93.66;101286.25;5029163;28;46011;-77
2023/07/07 07:54:31;;;;;;;;;10.67;10.00;;;;;23.75;93.71;101285.16;5033606;28;45608;-76
2023/07/07 07:56:57;;;;;;;;;9.67;9.00;;;;;23.81;93.19;101280.47;5036415;28;47634;-77
2023/07/07 07:59:22;;;;;;;;;9.00;7.33;;;;;23.89;92.84;101283.78;5029601;28;45472;-76
2023/07/07 08:01:48;;;;;;;;;8.67;8.67;;;;;23.94;92.99;101296.16;5034965;28;45422;-76
2023/07/07 08:04:13;;;;;;;;;6.33;6.33;;;;;24.00;92.70;101289.66;5037864;28;45525;-77
2023/07/07 08:06:42;;;;;;;;;15.00;7.00;;;;;24.10;92.22;101295.59;5035360;28;46307;-77
2023/07/07 08:09:08;;;;;;;;;6.67;6.67;;;;;24.16;92.28;101296.22;5037734;28;45399;-75
2023/07/07 08:11:42;;;;;;;;;5.67;5.67;;;;;24.21;92.24;101290.66;5037109;28;45474;-75
2023/07/07 08:14:12;;;;;;;;;7.00;7.00;;;;;24.24;91.10;101291.44;5033739;28;45387;-77
2023/07/07 08:16:38;;;;;;;;;7.00;7.00;;;;;24.26;90.80;101297.66;5036711;28;47622;-80
2023/07/07 08:19:04;;;;;;;;;5.67;5.67;;;;;24.31;89.49;101301.03;5037736;28;45356;-78
2023/07/07 08:21:29;;;;;;;;;7.00;6.00;;;;;24.36;88.50;101297.34;5036898;28;54624;-78
2023/07/07 08:23:54;;;;;;;;;7.00;5.33;;;;;24.40;88.61;101298.97;5037524;28;45581;-77
2023/07/07 08:26:20;;;;;;;;;6.67;6.67;;;;;24.44;89.71;101298.78;5037060;28;60238;-78
2023/07/07 08:28:45;;;;;;;;;6.00;6.00;;;;;24.49;89.36;101301.28;5029835;28;54880;-76
2023/07/07 08:31:10;;;;;;;;;11.33;9.33;;;;;24.52;89.91;101296.66;5030319;28;45372;-75
2023/07/07 08:33:36;;;;;;;;;8.67;7.33;;;;;24.56;89.34;101295.59;5032724;28;47654;-77
2023/07/07 08:36:01;;;;;;;;;5.33;5.33;;;;;24.65;88.98;101304.28;5033623;28;46582;-76
2023/07/07 08:38:27;;;;;;;;;8.67;5.67;;;;;24.70;87.14;101304.97;5034177;28;45304;-76
2023/07/07 08:40:54;;;;;;;;;9.33;5.67;;;;;24.73;85.64;101304.84;5033293;28;45487;-76
2023/07/07 08:43:21;;;;;;;;;7.00;5.00;;;;;24.71;85.78;101301.31;5029823;28;45610;-76
2023/07/07 08:45:58;;;;;;;;;9.33;6.00;;;;;24.75;86.88;101305.66;5027859;28;46218;-76
2023/07/07 08:48:41;;;;;;;;;6.00;6.00;;;;;24.75;87.25;101303.84;5036468;28;45308;-76
2023/07/07 08:51:13;;;;;;;;;6.67;6.67;;;;;24.79;87.86;101301.91;5029638;28;45429;-76
2023/07/07 08:54:22;;;;;;;;;7.67;7.00;;;;;24.84;88.57;101297.19;5034540;28;45526;-77
2023/07/07 08:56:54;;;;;;;;;8.00;7.00;;;;;24.87;88.19;101286.25;4949380;28;46297;-76
2023/07/07 08:59:41;;;;;;;;;6.00;6.00;;;;;24.92;87.74;101292.34;4953640;28;45399;-76
2023/07/07 09:02:09;;;;;;;;;7.00;6.00;;;;;24.98;86.99;101299.31;5003038;28;45502;-76
2023/07/07 09:04:47;;;;;;;;;8.33;7.67;;;;;25.05;87.00;101300.84;5036396;28;45462;-76
2023/07/07 09:07:31;;;;;;;;;12.00;7.00;;;;;25.13;87.70;101305.94;5030788;28;47474;-76
2023/07/07 09:10:13;;;;;;;;;11.67;6.67;;;;;25.20;87.59;101302.06;5035764;28;45423;-76
2023/07/07 09:12:43;;;;;;;;;9.33;9.33;;;;;25.29;86.49;101301.63;5036440;28;45460;-76
2023/07/07 09:15:14;;;;;;;;;7.33;7.33;;;;;25.41;86.71;101302.94;5034702;28;45538;-76
2023/07/07 09:17:43;;;;;;;;;7.67;7.67;;;;;25.52;87.01;101306.06;5036643;28;47330;-76
2023/07/07 09:20:10;;;;;;;;;6.33;6.33;;;;;25.63;87.29;101305.59;5033007;28;45512;-76
2023/07/07 09:22:43;;;;;;;;;8.00;7.00;;;;;25.73;85.74;101298.84;5036162;28;54608;-76
2023/07/07 09:25:19;;;;;;;;;6.33;5.00;;;;;25.85;86.98;101296.47;5033786;28;45385;-75
2023/07/07 09:27:54;;;;;;;;;8.00;8.00;;;;;26.00;85.21;101288.63;5034561;28;47096;-77
2023/07/07 09:30:30;;;;;;;;;8.00;7.33;;;;;26.21;85.22;101287.63;5035541;28;45434;-76
2023/07/07 09:32:56;;;;;;;;;8.33;6.00;;;;;26.36;84.75;101284.16;5034578;28;45567;-76
2023/07/07 09:35:26;;;;;;;;;7.67;7.67;;;;;26.53;84.07;101286.13;5035902;28;45501;-76
2023/07/07 09:38:05;;;;;;;;;8.33;8.00;;;;;26.70;84.18;101285.31;5035499;28;47235;-76
2023/07/07 09:40:45;;;;;;;;;8.67;6.00;;;;;26.84;84.10;101271.06;5034719;28;45285;-77
2023/07/07 09:43:33;;;;;;;;;7.67;7.67;;;;;26.97;83.03;101279.47;5034592;28;45459;-76
2023/07/07 09:46:15;;;;;;;;;6.67;6.67;;;;;27.08;82.99;101277.13;5032322;28;45368;-76
2023/07/07 09:48:53;;;;;;;;;7.33;7.00;;;;;27.19;81.90;101269.31;5035136;28;47561;-76
2023/07/07 09:51:31;;;;;;;;;9.33;7.67;;;;;27.30;81.62;101280.47;5031815;28;45468;-76
2023/07/07 09:53:57;;;;;;;;;8.67;8.00;;;;;27.37;80.79;101275.59;5031069;28;45574;-77
2023/07/07 09:56:36;;;;;;;;;8.33;6.33;;;;;27.44;79.80;101271.63;5031319;28;45269;-77
2023/07/07 09:59:10;;;;;;;;;8.33;7.00;;;;;27.48;80.39;101275.03;5029638;28;46478;-77
2023/07/07 10:01:37;;;;;;;;;7.00;6.00;;;;;27.49;80.22;101271.41;5035594;28;45416;-76
2023/07/07 10:04:11;;;;;;;;;9.00;7.00;;;;;27.48;79.78;101262.34;5035042;28;45497;-76
2023/07/07 10:06:40;;;;;;;;;11.33;8.00;;;;;27.49;79.07;101271.41;5034587;28;45760;-76
2023/07/07 10:09:10;;;;;;;;;9.00;9.00;;;;;27.49;79.40;101269.56;5035677;28;46516;-76
2023/07/07 10:11:38;;;;;;;;;8.00;8.00;;;;;27.48;79.25;101273.22;5033539;28;45620;-76
2023/07/07 10:14:05;;;;;;;;;10.67;8.00;;;;;27.48;78.82;101272.34;5034786;28;45655;-77
2023/07/07 10:16:34;;;;;;;;;9.67;8.00;;;;;27.48;79.58;101273.22;5035246;28;45186;-76
2023/07/07 10:19:09;;;;;;;;;6.33;5.00;;;;;27.49;78.95;101274.13;5035432;28;46949;-76
2023/07/07 10:21:34;;;;;;;;;7.00;7.00;;;;;27.53;78.67;101271.13;5029472;28;45495;-76
2023/07/07 10:24:00;;;;;;;;;7.33;7.33;;;;;27.56;78.99;101270.97;5034058;28;45304;-76
2023/07/07 10:26:26;;;;;;;;;5.67;5.67;;;;;27.61;78.83;101268.91;5035702;28;45555;-76
2023/07/07 10:28:54;;;;;;;;;7.33;7.33;;;;;27.65;78.24;101275.06;5035127;28;49183;-76
2023/07/07 10:31:23;;;;;;;;;7.67;6.00;;;;;27.67;78.52;101265.00;5034813;28;45555;-76
2023/07/07 10:33:52;;;;;;;;;9.33;7.33;;;;;27.74;78.57;101257.41;5034809;28;45460;-76
2023/07/07 10:36:21;;;;;;;;;8.00;7.33;;;;;27.78;77.76;101262.59;5035531;28;45486;-77
2023/07/07 10:38:47;;;;;;;;;9.33;8.00;;;;;27.83;77.87;101257.81;5032253;28;47708;-76
2023/07/07 10:41:12;;;;;;;;;7.67;7.67;;;;;27.95;77.50;101256.25;5035488;28;50081;-77
2023/07/07 10:43:37;;;;;;;;;11.00;9.33;;;;;28.04;77.62;101258.47;5034320;28;54209;-77
2023/07/07 10:46:09;;;;;;;;;10.00;7.67;;;;;28.12;77.43;101258.91;5035581;28;45510;-76
2023/07/07 10:48:34;;;;;;;;;12.00;10.00;;;;;28.25;77.20;101258.25;5035189;28;47544;-77
2023/07/07 10:51:16;;;;;;;;;11.33;10.00;;;;;28.33;76.91;101258.72;5034939;28;45272;-77
2023/07/07 10:54:02;;;;;;;;;11.33;10.00;;;;;28.39;76.02;101252.91;5033686;28;45337;-76
2023/07/07 10:56:28;;;;;;;;;46.25;36.00;;;;;28.44;76.13;101253.53;5035539;28;45432;-77
2023/07/07 10:59:12;;;;;;;;;63.25;48.00;;;;;28.51;75.98;101251.38;5035103;28;46460;-77
2023/07/07 11:01:46;;;;;;;;;23.67;21.33;;;;;28.58;75.94;101248.19;5035330;28;45316;-76
2023/07/07 11:04:21;;;;;;;;;14.00;13.33;;;;;28.65;75.88;101244.16;5034327;28;45473;-77
2023/07/07 11:07:11;;;;;;;;;16.67;11.00;;;;;28.70;76.02;101244.75;5035075;28;45621;-76
2023/07/07 11:09:58;;;;;;;;;11.00;8.33;;;;;28.75;75.41;101235.47;5029170;28;46538;-76
2023/07/07 11:12:31;;;;;;;;;75.00;63.75;;;;;28.80;74.50;101242.38;5034019;28;45469;-77
2023/07/07 11:15:12;;;;;;;;;178.25;160.00;;;;;28.87;74.00;101242.91;5033922;28;45206;-76
2023/07/07 11:17:46;;;;;;;;;36.33;29.33;;;;;28.95;74.26;101232.50;5035343;28;45635;-76
2023/07/07 11:20:34;;;;;;;;;60.50;48.00;;;;;29.00;73.99;101233.09;5034180;28;46255;-77
2023/07/07 11:23:32;;;;;;;;;40.25;33.75;;;;;29.05;72.81;101219.22;5036376;28;45471;-77
2023/07/07 11:26:10;;;;;;;;;31.67;27.67;;;;;29.12;73.11;101216.03;5032103;28;45445;-77
2023/07/07 11:28:41;;;;;;;;;20.33;16.33;;;;;29.17;72.25;101216.63;5051938;28;45550;-77